Terminal Aerodrome Forecast
Issued by NWS

Home | Current Version | Previous Version | Text Only | Print | Product List | Glossary On
Versions: 1 2 3 4 5 6 7 8 9 10 11 12 13 14 15
878
FTUS45 KTFX 291720
TAFHLN
TAF
KHLN 291720Z 2918/3018 VRB05KT P6SM FEW020 BKN060
     FM301100 VRB04KT P6SM VCFG SCT005 OVC015=

USA.gov is the U.S. government's official web portal to all federal, state and local government web resources and services.